createdAt,value
2018-08-23T00:00:21.044Z,0
2018-08-23T00:01:22.426Z,0
2018-08-23T00:02:23.812Z,0
2018-08-23T00:03:25.204Z,0
2018-08-23T00:04:26.583Z,0
2018-08-23T00:05:27.962Z,0
2018-08-23T00:06:29.349Z,0
2018-08-23T00:07:30.732Z,0
2018-08-23T00:08:32.123Z,0
2018-08-23T00:09:33.543Z,0
2018-08-23T00:10:34.910Z,0
2018-08-23T00:11:36.276Z,0
2018-08-23T00:12:37.668Z,0
2018-08-23T00:13:39.055Z,0
2018-08-23T00:14:40.443Z,0
2018-08-23T00:15:41.837Z,0
2018-08-23T00:16:43.252Z,0
2018-08-23T00:17:44.597Z,0
2018-08-23T00:18:45.989Z,0
2018-08-23T00:19:47.374Z,0
2018-08-23T00:20:48.757Z,0
2018-08-23T00:21:50.131Z,0
2018-08-23T00:22:51.531Z,0
2018-08-23T00:23:52.909Z,0
2018-08-23T00:24:54.292Z,0
2018-08-23T00:25:55.675Z,0
2018-08-23T00:26:57.075Z,0
2018-08-23T00:27:58.455Z,0
2018-08-23T00:28:59.847Z,0
2018-08-23T00:30:01.237Z,0
2018-08-23T00:31:02.624Z,0
2018-08-23T00:32:04.004Z,0
2018-08-23T00:33:05.384Z,0
2018-08-23T00:34:06.762Z,0
2018-08-23T00:35:08.152Z,0
2018-08-23T00:36:09.538Z,0
2018-08-23T00:37:10.920Z,0
2018-08-23T00:38:12.312Z,0
2018-08-23T00:39:13.693Z,0
2018-08-23T00:40:15.081Z,0
2018-08-23T00:41:16.466Z,0
2018-08-23T00:42:17.855Z,0
2018-08-23T00:43:19.246Z,0
2018-08-23T00:44:20.625Z,0
2018-08-23T00:45:22.013Z,0
2018-08-23T00:46:23.405Z,0
2018-08-23T00:47:24.785Z,0
2018-08-23T00:48:26.162Z,0
2018-08-23T00:49:27.545Z,0
2018-08-23T00:50:28.938Z,0
2018-08-23T00:51:30.326Z,0
2018-08-23T00:52:31.706Z,0
2018-08-23T00:53:33.092Z,0
2018-08-23T00:54:34.476Z,0
2018-08-23T00:55:35.868Z,0
2018-08-23T00:56:37.249Z,0
2018-08-23T00:57:38.626Z,0
2018-08-23T00:58:40.018Z,0
2018-08-23T00:59:41.413Z,0
2018-08-23T01:00:42.790Z,0
2018-08-23T01:01:44.175Z,0
2018-08-23T01:02:45.558Z,0
2018-08-23T01:03:46.952Z,0
2018-08-23T01:04:48.344Z,0
2018-08-23T01:05:49.720Z,0
2018-08-23T01:06:51.103Z,0
2018-08-23T01:07:52.495Z,0
2018-08-23T01:08:53.899Z,0
2018-08-23T01:09:55.295Z,0
2018-08-23T01:10:56.683Z,0
2018-08-23T01:11:58.074Z,0
2018-08-23T01:12:59.468Z,0
2018-08-23T01:14:00.858Z,0
2018-08-23T01:15:02.238Z,0
2018-08-23T01:16:03.629Z,0
2018-08-23T01:17:05.148Z,0
2018-08-23T01:18:06.412Z,0
2018-08-23T01:19:07.788Z,0
2018-08-23T01:20:09.170Z,0
2018-08-23T01:21:10.559Z,0
2018-08-23T01:22:11.940Z,0
2018-08-23T01:23:13.332Z,0
2018-08-23T01:24:14.716Z,0
2018-08-23T01:25:16.110Z,0
2018-08-23T01:26:17.494Z,0
2018-08-23T01:27:18.879Z,0
2018-08-23T01:28:20.264Z,0
2018-08-23T01:29:21.655Z,0
2018-08-23T01:30:23.038Z,0
2018-08-23T01:31:24.432Z,0
2018-08-23T01:32:25.817Z,0
2018-08-23T01:33:27.221Z,0
2018-08-23T01:34:28.599Z,0
2018-08-23T01:35:29.970Z,0
2018-08-23T01:36:31.362Z,0
2018-08-23T01:37:32.739Z,0
2018-08-23T01:38:34.129Z,0
2018-08-23T01:39:35.517Z,0
2018-08-23T01:40:36.897Z,0
2018-08-23T01:41:38.276Z,0
2018-08-23T01:42:39.663Z,0
2018-08-23T01:43:41.050Z,0
2018-08-23T01:44:42.439Z,0
2018-08-23T01:45:43.832Z,0
2018-08-23T01:46:45.221Z,0
2018-08-23T01:47:46.612Z,0
2018-08-23T01:48:47.986Z,0
2018-08-23T01:49:49.375Z,0
2018-08-23T01:50:50.762Z,0
2018-08-23T01:51:52.150Z,0
2018-08-23T01:52:53.535Z,0
2018-08-23T01:53:54.918Z,0
2018-08-23T01:54:56.300Z,0
2018-08-23T01:55:57.684Z,0
2018-08-23T01:56:59.074Z,0
2018-08-23T01:58:00.467Z,0
2018-08-23T01:59:01.843Z,0
2018-08-23T02:00:03.223Z,0
2018-08-23T02:01:04.605Z,0
2018-08-23T02:02:05.993Z,0
2018-08-23T02:03:07.372Z,0
2018-08-23T02:04:08.758Z,0
2018-08-23T02:05:10.153Z,0
2018-08-23T02:06:11.537Z,0
2018-08-23T02:07:12.930Z,0
2018-08-23T02:08:14.331Z,0
2018-08-23T02:09:15.725Z,0
2018-08-23T02:10:17.101Z,0
2018-08-23T02:11:18.499Z,0
2018-08-23T02:12:19.887Z,0
2018-08-23T02:13:21.280Z,0
2018-08-23T02:14:22.669Z,0
2018-08-23T02:15:24.065Z,0
2018-08-23T02:16:25.441Z,0
2018-08-23T02:17:26.836Z,0
2018-08-23T02:18:28.215Z,0
2018-08-23T02:19:29.600Z,0
2018-08-23T02:20:30.982Z,0
2018-08-23T02:21:32.330Z,0
2018-08-23T02:22:33.714Z,0
2018-08-23T02:23:35.092Z,0
2018-08-23T02:24:37.011Z,0
2018-08-23T02:25:38.392Z,0
2018-08-23T02:26:39.780Z,0
2018-08-23T02:27:41.157Z,0
2018-08-23T02:28:42.542Z,0
2018-08-23T02:29:43.929Z,0
2018-08-23T02:30:45.321Z,0
2018-08-23T02:31:46.704Z,0
2018-08-23T02:32:48.089Z,0
2018-08-23T02:33:49.491Z,0
2018-08-23T02:34:50.873Z,0
2018-08-23T02:35:52.270Z,0
2018-08-23T02:36:53.652Z,0
2018-08-23T02:37:55.029Z,0
2018-08-23T02:38:56.416Z,0
2018-08-23T02:39:57.805Z,0
2018-08-23T02:40:59.193Z,0
2018-08-23T02:42:00.578Z,0
2018-08-23T02:43:01.966Z,0
2018-08-23T02:44:03.372Z,0
2018-08-23T02:45:04.734Z,0
2018-08-23T02:46:06.124Z,0
2018-08-23T02:47:07.504Z,0
2018-08-23T02:48:08.893Z,0
2018-08-23T02:49:10.282Z,0
2018-08-23T02:50:11.668Z,0
2018-08-23T02:51:13.057Z,0
2018-08-23T02:52:14.444Z,0
2018-08-23T02:53:15.834Z,0
2018-08-23T02:54:17.213Z,0
2018-08-23T02:55:18.595Z,0
2018-08-23T02:56:19.979Z,0
2018-08-23T02:57:21.362Z,0
2018-08-23T02:58:22.752Z,0
2018-08-23T02:59:24.137Z,0
2018-08-23T03:00:25.533Z,0
2018-08-23T03:01:26.901Z,0
2018-08-23T03:02:28.283Z,0
2018-08-23T03:03:29.689Z,0
2018-08-23T03:04:31.078Z,0
2018-08-23T03:05:32.465Z,0
2018-08-23T03:06:33.866Z,0
2018-08-23T03:07:35.246Z,0
2018-08-23T03:08:36.626Z,0
2018-08-23T03:09:38.013Z,0
2018-08-23T03:10:39.414Z,0
2018-08-23T03:11:40.792Z,0
2018-08-23T03:12:42.184Z,0
2018-08-23T03:13:44.458Z,0
2018-08-23T03:14:45.836Z,0
2018-08-23T03:15:47.228Z,0
2018-08-23T03:16:48.610Z,0
2018-08-23T03:17:50.009Z,0
2018-08-23T03:18:51.396Z,0
2018-08-23T03:19:52.785Z,0
2018-08-23T03:20:54.166Z,0
2018-08-23T03:21:55.554Z,0
2018-08-23T03:22:56.947Z,0
2018-08-23T03:23:58.335Z,0
2018-08-23T03:24:59.713Z,0
2018-08-23T03:26:01.101Z,0
2018-08-23T03:27:02.481Z,0
2018-08-23T03:28:03.863Z,0
2018-08-23T03:29:05.245Z,0
2018-08-23T03:30:06.632Z,0
2018-08-23T03:31:08.018Z,0
2018-08-23T03:32:09.412Z,0
2018-08-23T03:33:10.787Z,0
2018-08-23T03:34:12.174Z,0
2018-08-23T03:35:13.569Z,0
2018-08-23T03:36:14.949Z,0
2018-08-23T03:37:16.332Z,0
2018-08-23T03:38:17.724Z,0
2018-08-23T03:39:19.108Z,0
2018-08-23T03:40:20.498Z,0
2018-08-23T03:41:21.873Z,0
2018-08-23T03:42:23.264Z,0
2018-08-23T03:43:24.646Z,0
2018-08-23T03:44:26.038Z,0
2018-08-23T03:45:27.429Z,0
2018-08-23T03:46:28.807Z,0
2018-08-23T03:47:30.195Z,0
2018-08-23T03:48:31.583Z,0
2018-08-23T03:49:32.969Z,0
2018-08-23T03:50:34.357Z,0
2018-08-23T03:51:35.747Z,0
2018-08-23T03:52:37.216Z,0
2018-08-23T03:53:38.517Z,0
2018-08-23T03:54:39.908Z,0
2018-08-23T03:55:41.302Z,0
2018-08-23T03:56:42.673Z,0
2018-08-23T03:57:44.064Z,0
2018-08-23T03:58:45.456Z,0
2018-08-23T03:59:46.852Z,0
2018-08-23T04:00:48.237Z,0
2018-08-23T04:01:49.624Z,0
2018-08-23T04:02:51.017Z,0
2018-08-23T04:03:52.400Z,0
2018-08-23T04:04:53.782Z,0
2018-08-23T04:05:55.160Z,0
2018-08-23T04:06:56.545Z,0
2018-08-23T04:07:57.936Z,0
2018-08-23T04:08:59.312Z,0
2018-08-23T04:10:00.706Z,0
2018-08-23T04:11:02.092Z,5
2018-08-23T04:12:03.481Z,5
2018-08-23T04:13:04.862Z,5
2018-08-23T04:14:06.242Z,5
2018-08-23T04:15:07.639Z,5
2018-08-23T04:16:09.029Z,5
2018-08-23T04:17:10.415Z,5
2018-08-23T04:18:11.811Z,5
2018-08-23T04:19:13.198Z,5
2018-08-23T04:20:14.588Z,5
2018-08-23T04:21:15.968Z,5
2018-08-23T04:22:17.357Z,5
2018-08-23T04:23:18.749Z,5
2018-08-23T04:24:20.139Z,5
2018-08-23T04:25:21.524Z,5
2018-08-23T04:26:22.914Z,10
2018-08-23T04:27:24.301Z,10
2018-08-23T04:28:25.693Z,10
2018-08-23T04:29:27.800Z,10
2018-08-23T04:30:29.189Z,10
2018-08-23T04:31:30.576Z,10
2018-08-23T04:32:31.982Z,10
2018-08-23T04:33:33.374Z,10
2018-08-23T04:34:34.763Z,10
2018-08-23T04:35:36.149Z,10
2018-08-23T04:36:37.540Z,15
2018-08-23T04:37:38.927Z,15
2018-08-23T04:38:40.316Z,15
2018-08-23T04:39:41.712Z,15
2018-08-23T04:40:43.089Z,15
2018-08-23T04:41:44.483Z,20
2018-08-23T04:42:45.864Z,20
2018-08-23T04:43:47.257Z,20
2018-08-23T04:44:48.648Z,20
2018-08-23T04:45:50.042Z,25
2018-08-23T04:46:51.425Z,25
2018-08-23T04:47:52.808Z,25
2018-08-23T04:48:54.208Z,25
2018-08-23T04:49:55.591Z,25
2018-08-23T04:50:56.981Z,25
2018-08-23T04:51:58.364Z,25
2018-08-23T04:52:59.757Z,25
2018-08-23T04:54:01.145Z,25
2018-08-23T04:55:02.536Z,25
2018-08-23T04:56:03.924Z,25
2018-08-23T04:57:05.326Z,25
2018-08-23T04:58:06.720Z,30
2018-08-23T04:59:08.102Z,30
2018-08-23T05:00:09.489Z,30
2018-08-23T05:01:10.876Z,30
2018-08-23T05:02:12.267Z,30
2018-08-23T05:03:13.670Z,30
2018-08-23T05:04:15.062Z,30
2018-08-23T05:05:16.446Z,30
2018-08-23T05:06:17.838Z,30
2018-08-23T05:07:19.230Z,30
2018-08-23T05:08:20.623Z,30
2018-08-23T05:09:22.002Z,30
2018-08-23T05:10:23.399Z,30
2018-08-23T05:11:24.778Z,30
2018-08-23T05:12:26.172Z,30
2018-08-23T05:13:27.559Z,30
2018-08-23T05:14:28.941Z,35
2018-08-23T05:15:30.327Z,35
2018-08-23T05:16:31.713Z,35
2018-08-23T05:17:33.103Z,35
2018-08-23T05:18:34.496Z,35
2018-08-23T05:19:35.879Z,35
2018-08-23T05:20:37.265Z,35
2018-08-23T05:21:38.664Z,35
2018-08-23T05:22:40.047Z,35
2018-08-23T05:23:41.437Z,35
2018-08-23T05:24:42.822Z,40
2018-08-23T05:25:44.209Z,40
2018-08-23T05:26:45.593Z,40
2018-08-23T05:27:46.990Z,40
2018-08-23T05:28:48.369Z,40
2018-08-23T05:29:49.771Z,40
2018-08-23T05:30:51.152Z,40
2018-08-23T05:31:52.534Z,40
2018-08-23T05:32:53.922Z,45
2018-08-23T05:33:55.310Z,45
2018-08-23T05:34:56.704Z,45
2018-08-23T05:35:58.098Z,45
2018-08-23T05:36:59.486Z,45
2018-08-23T05:38:00.865Z,45
2018-08-23T05:39:02.265Z,45
2018-08-23T05:40:03.648Z,45
2018-08-23T05:41:05.038Z,50
2018-08-23T05:42:06.423Z,50
2018-08-23T05:43:07.813Z,45
2018-08-23T05:44:09.201Z,50
2018-08-23T05:45:10.590Z,50
2018-08-23T05:46:11.981Z,55
2018-08-23T05:47:13.377Z,50
2018-08-23T05:48:14.763Z,50
2018-08-23T05:49:16.146Z,45
2018-08-23T05:50:17.537Z,50
2018-08-23T05:51:18.970Z,50
2018-08-23T05:52:20.978Z,50
2018-08-23T05:53:22.850Z,50
2018-08-23T05:54:24.248Z,50
2018-08-23T05:55:25.649Z,50
2018-08-23T05:56:27.070Z,50
2018-08-23T05:57:28.470Z,50
2018-08-23T05:58:29.928Z,50
2018-08-23T05:59:31.301Z,55
2018-08-23T06:00:32.732Z,55
2018-08-23T06:01:34.150Z,55
2018-08-23T06:02:35.563Z,55
2018-08-23T06:03:36.956Z,55
2018-08-23T06:04:38.345Z,55
2018-08-23T06:05:39.733Z,55
2018-08-23T06:06:41.124Z,55
2018-08-23T06:07:42.516Z,55
2018-08-23T06:08:43.914Z,55
2018-08-23T06:09:45.303Z,55
2018-08-23T06:10:46.700Z,55
2018-08-23T06:11:48.083Z,55
2018-08-23T06:12:49.479Z,55
2018-08-23T06:13:50.875Z,55
2018-08-23T06:14:52.261Z,55
2018-08-23T06:15:53.659Z,60
2018-08-23T06:16:55.044Z,60
2018-08-23T06:17:56.437Z,55
2018-08-23T06:18:57.820Z,60
2018-08-23T06:19:59.241Z,60
2018-08-23T06:21:00.632Z,60
2018-08-23T06:22:02.020Z,70
2018-08-23T06:23:03.415Z,65
2018-08-23T06:24:04.809Z,70
2018-08-23T06:25:06.196Z,75
2018-08-23T06:26:07.583Z,80
2018-08-23T06:27:08.968Z,80
2018-08-23T06:28:10.368Z,80
2018-08-23T06:29:11.750Z,85
2018-08-23T06:30:13.150Z,85
2018-08-23T06:31:14.540Z,105
2018-08-23T06:32:15.930Z,140
2018-08-23T06:33:17.455Z,160
2018-08-23T06:34:18.714Z,165
2018-08-23T06:35:20.107Z,160
2018-08-23T06:36:21.495Z,160
2018-08-23T06:37:22.890Z,155
2018-08-23T06:38:24.291Z,155
2018-08-23T06:39:25.692Z,155
2018-08-23T06:40:27.086Z,150
2018-08-23T06:41:28.487Z,150
2018-08-23T06:42:29.877Z,150
2018-08-23T06:43:31.273Z,150
2018-08-23T06:44:32.707Z,155
2018-08-23T06:45:34.065Z,150
2018-08-23T06:46:35.456Z,145
2018-08-23T06:47:36.853Z,140
2018-08-23T06:48:38.237Z,135
2018-08-23T06:49:39.637Z,135
2018-08-23T06:50:41.044Z,120
2018-08-23T06:51:42.433Z,115
2018-08-23T06:52:43.816Z,120
2018-08-23T06:53:45.210Z,115
2018-08-23T06:54:46.601Z,115
2018-08-23T06:55:48.000Z,110
2018-08-23T06:56:49.382Z,110
2018-08-23T06:57:50.784Z,105
2018-08-23T06:58:52.199Z,110
2018-08-23T06:59:53.577Z,110
2018-08-23T07:00:54.975Z,105
2018-08-23T07:01:56.368Z,105
2018-08-23T07:02:57.770Z,105
2018-08-23T07:03:59.159Z,105
2018-08-23T07:05:00.549Z,105
2018-08-23T07:06:01.954Z,105
2018-08-23T07:07:03.369Z,100
2018-08-23T07:08:04.773Z,105
2018-08-23T07:09:06.164Z,105
2018-08-23T07:10:07.576Z,105
2018-08-23T07:11:08.982Z,105
2018-08-23T07:12:10.389Z,105
2018-08-23T07:13:11.781Z,105
2018-08-23T07:14:13.161Z,105
2018-08-23T07:15:14.568Z,105
2018-08-23T07:16:15.964Z,105
2018-08-23T07:17:17.455Z,105
2018-08-23T07:18:18.765Z,105
2018-08-23T07:19:20.245Z,105
2018-08-23T07:20:21.628Z,105
2018-08-23T07:21:23.024Z,105
2018-08-23T07:22:24.921Z,105
2018-08-23T07:23:26.313Z,105
2018-08-23T07:24:29.534Z,100
2018-08-23T07:25:30.935Z,105
2018-08-23T07:26:32.329Z,100
2018-08-23T07:27:33.728Z,105
2018-08-23T07:28:35.116Z,105
2018-08-23T07:29:36.506Z,105
2018-08-23T07:30:37.897Z,100
2018-08-23T07:31:39.296Z,105
2018-08-23T07:32:40.689Z,105
2018-08-23T07:33:42.093Z,105
2018-08-23T07:34:43.497Z,105
2018-08-23T07:35:44.891Z,100
2018-08-23T07:36:46.276Z,100
2018-08-23T07:37:47.697Z,100
2018-08-23T07:38:49.075Z,100
2018-08-23T07:39:50.467Z,100
2018-08-23T07:40:51.875Z,100
2018-08-23T07:41:53.268Z,100
2018-08-23T07:42:54.675Z,100
2018-08-23T07:43:56.059Z,100
2018-08-23T07:44:57.456Z,100
2018-08-23T07:45:58.854Z,100
2018-08-23T07:47:00.256Z,100
2018-08-23T07:48:01.646Z,100
2018-08-23T07:49:03.073Z,100
2018-08-23T07:50:04.450Z,100
2018-08-23T07:51:05.839Z,95
2018-08-23T07:52:07.232Z,95
2018-08-23T07:53:08.722Z,95
2018-08-23T07:54:10.029Z,95
2018-08-23T07:55:11.427Z,95
2018-08-23T07:56:12.817Z,95
2018-08-23T07:57:14.210Z,95
2018-08-23T07:58:15.611Z,95
2018-08-23T07:59:17.167Z,95
2018-08-23T08:00:18.550Z,95
2018-08-23T08:01:19.960Z,95
2018-08-23T08:02:21.353Z,95
2018-08-23T08:03:22.756Z,95
2018-08-23T08:04:24.150Z,95
2018-08-23T08:05:25.544Z,95
2018-08-23T08:06:26.939Z,95
2018-08-23T08:07:28.338Z,95
2018-08-23T08:08:29.727Z,95
2018-08-23T08:09:31.125Z,95
2018-08-23T08:10:32.521Z,95
2018-08-23T08:11:33.908Z,95
2018-08-23T08:12:35.313Z,95
2018-08-23T08:13:36.706Z,110
2018-08-23T08:14:38.109Z,95
2018-08-23T08:15:39.496Z,100
2018-08-23T08:16:40.906Z,95
2018-08-23T08:17:42.309Z,95
2018-08-23T08:18:43.693Z,95
2018-08-23T08:19:45.944Z,95
2018-08-23T08:20:47.342Z,90
2018-08-23T08:21:48.729Z,85
2018-08-23T08:22:50.137Z,75
2018-08-23T08:23:51.520Z,95
2018-08-23T08:24:52.920Z,85
2018-08-23T08:25:54.311Z,90
2018-08-23T08:26:55.713Z,85
2018-08-23T08:27:57.108Z,75
2018-08-23T08:28:58.512Z,135
2018-08-23T08:29:59.911Z,120
2018-08-23T08:31:01.375Z,120
2018-08-23T08:32:02.710Z,115
2018-08-23T08:33:04.125Z,105
2018-08-23T08:34:05.505Z,110
2018-08-23T08:35:06.899Z,105
2018-08-23T08:36:08.303Z,125
2018-08-23T08:37:09.706Z,125
2018-08-23T08:38:11.090Z,130
2018-08-23T08:39:12.492Z,125
2018-08-23T08:40:13.894Z,125
2018-08-23T08:41:15.290Z,130
2018-08-23T08:42:16.692Z,125
2018-08-23T08:43:18.096Z,125
2018-08-23T08:44:19.498Z,125
2018-08-23T08:45:20.901Z,125
2018-08-23T08:46:22.296Z,125
2018-08-23T08:47:23.687Z,125
2018-08-23T08:48:25.079Z,125
2018-08-23T08:49:26.470Z,125
2018-08-23T08:50:27.913Z,125
2018-08-23T08:51:29.275Z,130
2018-08-23T08:52:30.671Z,130
2018-08-23T08:53:32.084Z,135
2018-08-23T08:54:33.475Z,135
2018-08-23T08:55:34.890Z,135
2018-08-23T08:56:36.324Z,135
2018-08-23T08:57:37.704Z,135
2018-08-23T08:58:39.083Z,115
2018-08-23T08:59:40.478Z,110
2018-08-23T09:00:41.882Z,115
2018-08-23T09:01:43.309Z,110
2018-08-23T09:02:44.736Z,115
2018-08-23T09:03:46.160Z,115
2018-08-23T09:04:47.566Z,115
2018-08-23T09:05:48.988Z,110
2018-08-23T09:06:50.405Z,115
2018-08-23T09:07:51.808Z,115
2018-08-23T09:08:53.224Z,120
2018-08-23T09:09:54.664Z,115
2018-08-23T09:10:55.991Z,120
2018-08-23T09:11:57.463Z,115
2018-08-23T09:12:58.866Z,115
2018-08-23T09:14:00.274Z,115
2018-08-23T09:15:01.705Z,115
2018-08-23T09:16:03.105Z,115
2018-08-23T09:17:04.506Z,120
2018-08-23T09:18:06.299Z,120
2018-08-23T09:19:07.652Z,120
2018-08-23T09:20:09.065Z,120
2018-08-23T09:21:10.463Z,120
2018-08-23T09:22:11.867Z,120
2018-08-23T09:23:13.267Z,90
2018-08-23T09:24:14.659Z,125
2018-08-23T09:25:16.078Z,150
2018-08-23T09:26:17.457Z,150
2018-08-23T09:27:18.962Z,150
2018-08-23T09:28:20.270Z,155
2018-08-23T09:29:21.679Z,125
2018-08-23T09:30:23.094Z,155
2018-08-23T09:31:24.508Z,170
2018-08-23T09:32:25.924Z,165
2018-08-23T09:33:27.321Z,160
2018-08-23T09:34:28.712Z,155
2018-08-23T09:35:30.129Z,150
2018-08-23T09:36:31.510Z,160
2018-08-23T09:37:32.920Z,145
2018-08-23T09:38:34.323Z,155
2018-08-23T09:39:35.718Z,175
2018-08-23T09:40:37.110Z,165
2018-08-23T09:41:38.544Z,155
2018-08-23T09:42:39.925Z,165
2018-08-23T09:43:41.320Z,140
2018-08-23T09:44:42.735Z,145
2018-08-23T09:45:44.147Z,150
2018-08-23T09:46:45.537Z,150
2018-08-23T09:47:46.939Z,185
2018-08-23T09:48:48.335Z,205
2018-08-23T09:49:49.746Z,160
2018-08-23T09:50:51.234Z,190
2018-08-23T09:51:52.552Z,160
2018-08-23T09:52:53.953Z,190
2018-08-23T09:53:55.358Z,195
2018-08-23T09:54:56.750Z,155
2018-08-23T09:55:58.160Z,185
2018-08-23T09:56:59.563Z,170
2018-08-23T09:58:00.967Z,180
2018-08-23T09:59:02.369Z,180
2018-08-23T10:00:03.777Z,185
2018-08-23T10:01:05.172Z,185
2018-08-23T10:02:06.565Z,175
2018-08-23T10:03:07.966Z,180
2018-08-23T10:04:09.387Z,150
2018-08-23T10:05:10.776Z,150
2018-08-23T10:06:12.746Z,145
2018-08-23T10:07:13.512Z,140
2018-08-23T10:08:14.918Z,1385
2018-08-23T10:09:16.352Z,1420
2018-08-23T10:10:17.717Z,1380
2018-08-23T10:11:19.173Z,1355
2018-08-23T10:12:20.530Z,1340
2018-08-23T10:13:21.940Z,1360
2018-08-23T10:14:23.342Z,1410
2018-08-23T10:15:24.747Z,1460
2018-08-23T10:16:26.151Z,95
2018-08-23T10:17:27.543Z,95
2018-08-23T10:18:28.953Z,95
2018-08-23T10:19:30.361Z,95
2018-08-23T10:20:31.756Z,90
2018-08-23T10:21:33.151Z,95
2018-08-23T10:22:34.552Z,1450
2018-08-23T10:23:35.961Z,1385
2018-08-23T10:24:38.035Z,1325
2018-08-23T10:25:39.939Z,1310
2018-08-23T10:26:42.254Z,1305
2018-08-23T10:27:43.503Z,1300
2018-08-23T10:28:44.915Z,1025
2018-08-23T10:29:46.312Z,1330
2018-08-23T10:30:47.723Z,1320
2018-08-23T10:31:49.117Z,1280
2018-08-23T10:32:50.522Z,1330
2018-08-23T10:33:51.935Z,620
2018-08-23T10:34:53.344Z,685
2018-08-23T10:35:54.752Z,200
2018-08-23T10:36:56.138Z,220
2018-08-23T10:37:57.530Z,165
2018-08-23T10:38:58.931Z,175
2018-08-23T10:40:00.344Z,180
2018-08-23T10:41:01.737Z,150
2018-08-23T10:42:03.143Z,190
2018-08-23T10:43:04.552Z,200
2018-08-23T10:44:06.013Z,215
2018-08-23T10:45:07.370Z,210
2018-08-23T10:46:08.779Z,210
2018-08-23T10:47:10.176Z,210
2018-08-23T10:48:11.572Z,165
2018-08-23T10:49:12.976Z,175
2018-08-23T10:50:14.375Z,175
2018-08-23T10:51:15.767Z,185
2018-08-23T10:52:17.187Z,210
2018-08-23T10:53:18.625Z,190
2018-08-23T10:54:20.014Z,195
2018-08-23T10:55:21.413Z,195
2018-08-23T10:56:22.813Z,200
2018-08-23T10:57:24.226Z,625
2018-08-23T10:58:25.624Z,1135
2018-08-23T10:59:27.040Z,1425
2018-08-23T11:00:28.456Z,1440
2018-08-23T11:01:29.858Z,1405
2018-08-23T11:02:31.270Z,1435
2018-08-23T11:03:32.677Z,1405
2018-08-23T11:04:34.081Z,1365
2018-08-23T11:05:35.499Z,1310
2018-08-23T11:06:36.908Z,1315
2018-08-23T11:07:38.326Z,1330
2018-08-23T11:08:39.716Z,1395
2018-08-23T11:09:41.152Z,1445
2018-08-23T11:10:42.546Z,1475
2018-08-23T11:11:43.952Z,750
2018-08-23T11:12:45.357Z,600
2018-08-23T11:13:46.768Z,930
2018-08-23T11:14:48.168Z,1250
2018-08-23T11:15:49.569Z,1570
2018-08-23T11:16:51.011Z,1625
2018-08-23T11:17:52.342Z,1605
2018-08-23T11:18:53.737Z,1585
2018-08-23T11:19:55.149Z,1525
2018-08-23T11:20:56.547Z,1475
2018-08-23T11:21:57.957Z,1440
2018-08-23T11:22:59.389Z,1080
2018-08-23T11:24:00.779Z,800
2018-08-23T11:25:02.210Z,1140
2018-08-23T11:26:03.610Z,1335
2018-08-23T11:27:05.014Z,1390
2018-08-23T11:28:06.420Z,1450
2018-08-23T11:29:07.835Z,1545
2018-08-23T11:30:09.247Z,420
2018-08-23T11:31:10.647Z,850
2018-08-23T11:32:12.058Z,1590
2018-08-23T11:33:13.460Z,1135
2018-08-23T11:34:14.860Z,1560
2018-08-23T11:35:16.313Z,675
2018-08-23T11:36:17.618Z,145
2018-08-23T11:37:19.033Z,145
2018-08-23T11:38:20.427Z,155
2018-08-23T11:39:21.834Z,160
2018-08-23T11:40:23.242Z,145
2018-08-23T11:41:24.648Z,135
2018-08-23T11:42:26.139Z,120
2018-08-23T11:43:27.557Z,165
2018-08-23T11:44:28.961Z,145
2018-08-23T11:45:30.358Z,195
2018-08-23T11:46:31.766Z,135
2018-08-23T11:47:33.169Z,115
2018-08-23T11:48:34.575Z,115
2018-08-23T11:49:35.976Z,110
2018-08-23T11:50:37.367Z,115
2018-08-23T11:51:38.774Z,115
2018-08-23T11:52:40.173Z,115
2018-08-23T11:53:41.663Z,110
2018-08-23T11:54:42.972Z,100
2018-08-23T11:55:44.374Z,95
2018-08-23T11:56:45.778Z,95
2018-08-23T11:57:47.185Z,100
2018-08-23T11:58:48.578Z,100
2018-08-23T11:59:49.978Z,100
2018-08-23T12:00:51.378Z,100
2018-08-23T12:01:52.803Z,100
2018-08-23T12:02:54.204Z,100
2018-08-23T12:03:55.633Z,75
2018-08-23T12:04:57.023Z,110
2018-08-23T12:05:58.432Z,105
2018-08-23T12:06:59.838Z,105
2018-08-23T12:08:01.243Z,85
2018-08-23T12:09:02.637Z,105
2018-08-23T12:10:04.043Z,105
2018-08-23T12:11:05.447Z,105
2018-08-23T12:12:07.697Z,95
2018-08-23T12:13:09.108Z,100
2018-08-23T12:14:10.502Z,105
2018-08-23T12:15:11.915Z,105
2018-08-23T12:16:13.306Z,105
2018-08-23T12:17:14.707Z,100
2018-08-23T12:18:16.113Z,105
2018-08-23T12:19:17.507Z,85
2018-08-23T12:20:18.913Z,105
2018-08-23T12:21:20.306Z,90
2018-08-23T12:22:21.708Z,85
2018-08-23T12:23:23.096Z,80
2018-08-23T12:24:24.503Z,80
2018-08-23T12:25:25.914Z,80
2018-08-23T12:26:27.312Z,80
2018-08-23T12:27:28.716Z,80
2018-08-23T12:28:30.124Z,80
2018-08-23T12:29:31.530Z,80
2018-08-23T12:30:32.945Z,65
2018-08-23T12:31:34.354Z,90
2018-08-23T12:32:35.735Z,90
2018-08-23T12:33:37.143Z,90
2018-08-23T12:34:38.534Z,90
2018-08-23T12:35:39.942Z,85
2018-08-23T12:36:41.346Z,85
2018-08-23T12:37:42.861Z,85
2018-08-23T12:38:44.145Z,80
2018-08-23T12:39:45.549Z,80
2018-08-23T12:40:46.977Z,80
2018-08-23T12:41:48.340Z,80
2018-08-23T12:42:49.738Z,80
2018-08-23T12:43:51.192Z,75
2018-08-23T12:44:52.543Z,85
2018-08-23T12:45:53.945Z,85
2018-08-23T12:46:55.353Z,85
2018-08-23T12:47:56.754Z,85
2018-08-23T12:48:58.144Z,85
2018-08-23T12:49:59.541Z,80
2018-08-23T12:51:00.934Z,70
2018-08-23T12:52:02.336Z,90
2018-08-23T12:53:03.737Z,160
2018-08-23T12:54:05.153Z,125
2018-08-23T12:55:06.540Z,85
2018-08-23T12:56:07.946Z,75
2018-08-23T12:57:09.344Z,300
2018-08-23T12:58:10.758Z,445
2018-08-23T12:59:12.167Z,75
2018-08-23T13:00:13.572Z,75
2018-08-23T13:01:14.979Z,70
2018-08-23T13:02:16.419Z,70
2018-08-23T13:03:17.739Z,85
2018-08-23T13:04:19.223Z,95
2018-08-23T13:05:20.540Z,85
2018-08-23T13:06:21.949Z,65
2018-08-23T13:07:23.351Z,65
2018-08-23T13:08:24.796Z,60
2018-08-23T13:09:26.157Z,75
2018-08-23T13:10:27.565Z,90
2018-08-23T13:11:28.973Z,80
2018-08-23T13:12:30.374Z,85
2018-08-23T13:13:31.787Z,75
2018-08-23T13:14:33.189Z,75
2018-08-23T13:15:34.592Z,75
2018-08-23T13:16:35.984Z,80
2018-08-23T13:17:37.445Z,80
2018-08-23T13:18:38.744Z,75
2018-08-23T13:19:40.221Z,75
2018-08-23T13:20:41.691Z,75
2018-08-23T13:21:43.115Z,75
2018-08-23T13:22:44.521Z,70
2018-08-23T13:23:45.927Z,85
2018-08-23T13:24:47.379Z,70
2018-08-23T13:25:48.844Z,70
2018-08-23T13:26:50.254Z,70
2018-08-23T13:27:51.686Z,65
2018-08-23T13:28:53.097Z,60
2018-08-23T13:29:54.515Z,75
2018-08-23T13:30:55.904Z,70
2018-08-23T13:31:57.378Z,75
2018-08-23T13:32:59.617Z,70
2018-08-23T13:34:01.032Z,75
2018-08-23T13:35:02.430Z,65
2018-08-23T13:36:03.833Z,45
2018-08-23T13:37:05.262Z,60
2018-08-23T13:38:06.621Z,65
2018-08-23T13:39:08.020Z,65
2018-08-23T13:40:09.432Z,70
2018-08-23T13:41:10.827Z,70
2018-08-23T13:42:12.228Z,50
2018-08-23T13:43:13.630Z,50
2018-08-23T13:44:15.036Z,50
2018-08-23T13:45:16.493Z,65
2018-08-23T13:46:17.835Z,60
2018-08-23T13:47:19.250Z,55
2018-08-23T13:48:20.678Z,55
2018-08-23T13:49:22.032Z,55
2018-08-23T13:50:23.441Z,60
2018-08-23T13:51:24.860Z,60
2018-08-23T13:52:26.263Z,60
2018-08-23T13:53:27.662Z,55
2018-08-23T13:54:29.078Z,60
2018-08-23T13:55:30.471Z,55
2018-08-23T13:56:31.878Z,55
2018-08-23T13:57:33.226Z,60
2018-08-23T13:58:34.634Z,60
2018-08-23T13:59:36.032Z,60
2018-08-23T14:00:37.429Z,60
2018-08-23T14:01:38.830Z,60
2018-08-23T14:02:40.286Z,65
2018-08-23T14:03:41.629Z,55
2018-08-23T14:04:43.033Z,55
2018-08-23T14:05:44.436Z,50
2018-08-23T14:06:45.841Z,50
2018-08-23T14:07:47.317Z,45
2018-08-23T14:08:48.620Z,50
2018-08-23T14:09:50.032Z,50
2018-08-23T14:10:51.440Z,55
2018-08-23T14:11:52.844Z,50
2018-08-23T14:12:54.350Z,45
2018-08-23T14:13:55.665Z,45
2018-08-23T14:14:57.062Z,45
2018-08-23T14:15:58.467Z,45
2018-08-23T14:16:59.866Z,50
2018-08-23T14:18:01.270Z,55
2018-08-23T14:19:02.678Z,55
2018-08-23T14:20:04.073Z,50
2018-08-23T14:21:05.479Z,55
2018-08-23T14:22:06.885Z,60
2018-08-23T14:23:08.266Z,60
2018-08-23T14:24:09.674Z,60
2018-08-23T14:25:11.071Z,55
2018-08-23T14:26:12.465Z,50
2018-08-23T14:27:13.926Z,50
2018-08-23T14:28:15.284Z,55
2018-08-23T14:29:16.677Z,50
2018-08-23T14:30:18.074Z,50
2018-08-23T14:31:19.467Z,50
2018-08-23T14:32:20.870Z,55